sensor_id;sensor_type;location;lat;lon;timestamp;temperature;humidity
40676;DHT22;26359;48.750;9.314;2024-02-14T00:01:55;4.30;99.90
40676;DHT22;26359;48.750;9.314;2024-02-14T00:04:20;4.30;99.90
40676;DHT22;26359;48.750;9.314;2024-02-14T00:06:46;4.30;99.90
40676;DHT22;26359;48.750;9.314;2024-02-14T00:09:12;4.30;99.90
40676;DHT22;26359;48.750;9.314;2024-02-14T00:11:37;4.40;99.90
40676;DHT22;26359;48.750;9.314;2024-02-14T00:14:03;4.40;99.90
40676;DHT22;26359;48.750;9.314;2024-02-14T00:16:29;4.40;99.90
40676;DHT22;26359;48.750;9.314;2024-02-14T00:18:57;4.40;99.90
40676;DHT22;26359;48.750;9.314;2024-02-14T00:21:23;4.30;99.90
40676;DHT22;26359;48.750;9.314;2024-02-14T00:23:52;4.10;99.90
40676;DHT22;26359;48.750;9.314;2024-02-14T00:26:17;4.00;99.90
40676;DHT22;26359;48.750;9.314;2024-02-14T00:28:43;4.00;99.90
40676;DHT22;26359;48.750;9.314;2024-02-14T00:31:08;3.90;99.90
40676;DHT22;26359;48.750;9.314;2024-02-14T00:33:34;4.00;99.90
40676;DHT22;26359;48.750;9.314;2024-02-14T00:35:59;4.10;99.90
40676;DHT22;26359;48.750;9.314;2024-02-14T00:38:25;4.00;99.90
40676;DHT22;26359;48.750;9.314;2024-02-14T00:40:50;3.90;99.90
40676;DHT22;26359;48.750;9.314;2024-02-14T00:43:16;4.00;99.90
40676;DHT22;26359;48.750;9.314;2024-02-14T00:45:42;3.80;99.90
40676;DHT22;26359;48.750;9.314;2024-02-14T00:48:08;4.00;99.90
40676;DHT22;26359;48.750;9.314;2024-02-14T00:50:33;4.00;99.90
40676;DHT22;26359;48.750;9.314;2024-02-14T00:52:59;4.00;99.90
40676;DHT22;26359;48.750;9.314;2024-02-14T00:55:25;4.00;99.90
40676;DHT22;26359;48.750;9.314;2024-02-14T00:57:50;4.00;99.90
40676;DHT22;26359;48.750;9.314;2024-02-14T01:00:16;4.00;99.90
40676;DHT22;26359;48.750;9.314;2024-02-14T01:02:42;4.00;99.90
40676;DHT22;26359;48.750;9.314;2024-02-14T01:05:08;4.00;99.90
40676;DHT22;26359;48.750;9.314;2024-02-14T01:07:35;4.10;99.90
40676;DHT22;26359;48.750;9.314;2024-02-14T01:10:00;4.10;99.90
40676;DHT22;26359;48.750;9.314;2024-02-14T01:12:26;4.10;99.90
40676;DHT22;26359;48.750;9.314;2024-02-14T01:14:51;4.20;99.90
40676;DHT22;26359;48.750;9.314;2024-02-14T01:17:17;4.20;99.90
40676;DHT22;26359;48.750;9.314;2024-02-14T01:19:42;4.20;99.90
40676;DHT22;26359;48.750;9.314;2024-02-14T01:22:09;4.20;99.90
40676;DHT22;26359;48.750;9.314;2024-02-14T01:24:34;4.20;99.90
40676;DHT22;26359;48.750;9.314;2024-02-14T01:27:00;4.30;99.90
40676;DHT22;26359;48.750;9.314;2024-02-14T01:29:26;4.30;99.90
40676;DHT22;26359;48.750;9.314;2024-02-14T01:31:52;4.30;99.90
40676;DHT22;26359;48.750;9.314;2024-02-14T01:34:18;4.30;99.90
40676;DHT22;26359;48.750;9.314;2024-02-14T01:36:43;4.30;99.90
40676;DHT22;26359;48.750;9.314;2024-02-14T01:39:09;4.40;99.90
40676;DHT22;26359;48.750;9.314;2024-02-14T01:41:46;4.40;99.90
40676;DHT22;26359;48.750;9.314;2024-02-14T01:44:16;4.40;99.90
40676;DHT22;26359;48.750;9.314;2024-02-14T01:46:43;4.40;99.90
40676;DHT22;26359;48.750;9.314;2024-02-14T01:49:10;4.40;99.90
40676;DHT22;26359;48.750;9.314;2024-02-14T01:51:38;4.40;99.90
40676;DHT22;26359;48.750;9.314;2024-02-14T01:54:04;4.40;99.90
40676;DHT22;26359;48.750;9.314;2024-02-14T01:56:31;4.40;99.90
40676;DHT22;26359;48.750;9.314;2024-02-14T01:58:58;4.40;99.90
40676;DHT22;26359;48.750;9.314;2024-02-14T02:01:24;4.40;99.90
40676;DHT22;26359;48.750;9.314;2024-02-14T02:03:49;4.50;99.90
40676;DHT22;26359;48.750;9.314;2024-02-14T02:06:15;4.40;99.90
40676;DHT22;26359;48.750;9.314;2024-02-14T02:08:44;4.50;99.90
40676;DHT22;26359;48.750;9.314;2024-02-14T02:11:10;4.40;99.90
40676;DHT22;26359;48.750;9.314;2024-02-14T02:13:35;4.30;99.90
40676;DHT22;26359;48.750;9.314;2024-02-14T02:16:05;4.30;99.90
40676;DHT22;26359;48.750;9.314;2024-02-14T02:18:31;4.20;99.90
40676;DHT22;26359;48.750;9.314;2024-02-14T02:20:57;4.30;99.90
40676;DHT22;26359;48.750;9.314;2024-02-14T02:23:23;4.30;99.90
40676;DHT22;26359;48.750;9.314;2024-02-14T02:25:48;4.30;99.90
40676;DHT22;26359;48.750;9.314;2024-02-14T02:28:14;4.40;99.90
40676;DHT22;26359;48.750;9.314;2024-02-14T02:30:40;4.50;99.90
40676;DHT22;26359;48.750;9.314;2024-02-14T02:33:06;4.40;99.90
40676;DHT22;26359;48.750;9.314;2024-02-14T02:35:33;4.50;99.90
40676;DHT22;26359;48.750;9.314;2024-02-14T02:37:59;4.40;99.90
40676;DHT22;26359;48.750;9.314;2024-02-14T02:40:25;4.40;99.90
40676;DHT22;26359;48.750;9.314;2024-02-14T02:42:52;4.40;99.90
40676;DHT22;26359;48.750;9.314;2024-02-14T02:45:18;4.40;99.90
40676;DHT22;26359;48.750;9.314;2024-02-14T02:47:44;4.40;99.90
40676;DHT22;26359;48.750;9.314;2024-02-14T02:50:09;4.50;99.90
40676;DHT22;26359;48.750;9.314;2024-02-14T02:52:35;4.50;99.90
40676;DHT22;26359;48.750;9.314;2024-02-14T02:55:01;4.50;99.90
40676;DHT22;26359;48.750;9.314;2024-02-14T02:57:28;4.50;99.90
40676;DHT22;26359;48.750;9.314;2024-02-14T02:59:53;4.50;99.90
40676;DHT22;26359;48.750;9.314;2024-02-14T03:02:20;4.50;99.90
40676;DHT22;26359;48.750;9.314;2024-02-14T03:04:46;4.40;99.90
40676;DHT22;26359;48.750;9.314;2024-02-14T03:07:12;4.50;99.90
40676;DHT22;26359;48.750;9.314;2024-02-14T03:09:38;4.50;99.90
40676;DHT22;26359;48.750;9.314;2024-02-14T03:12:04;4.50;99.90
40676;DHT22;26359;48.750;9.314;2024-02-14T03:14:30;4.50;99.90
40676;DHT22;26359;48.750;9.314;2024-02-14T03:17:04;4.40;99.90
40676;DHT22;26359;48.750;9.314;2024-02-14T03:19:30;4.40;99.90
40676;DHT22;26359;48.750;9.314;2024-02-14T03:21:56;4.40;99.90
40676;DHT22;26359;48.750;9.314;2024-02-14T03:24:23;4.40;99.90
40676;DHT22;26359;48.750;9.314;2024-02-14T03:26:51;4.40;99.90
40676;DHT22;26359;48.750;9.314;2024-02-14T03:29:17;4.30;99.90
40676;DHT22;26359;48.750;9.314;2024-02-14T03:31:42;4.30;99.90
40676;DHT22;26359;48.750;9.314;2024-02-14T03:34:09;4.30;99.90
40676;DHT22;26359;48.750;9.314;2024-02-14T03:36:37;4.30;99.90
40676;DHT22;26359;48.750;9.314;2024-02-14T03:39:03;4.30;99.90
40676;DHT22;26359;48.750;9.314;2024-02-14T03:41:30;4.20;99.90
40676;DHT22;26359;48.750;9.314;2024-02-14T03:43:55;4.10;99.90
40676;DHT22;26359;48.750;9.314;2024-02-14T03:46:23;4.10;99.90
40676;DHT22;26359;48.750;9.314;2024-02-14T03:48:49;4.20;99.90
40676;DHT22;26359;48.750;9.314;2024-02-14T03:51:15;4.20;99.90
40676;DHT22;26359;48.750;9.314;2024-02-14T03:53:41;4.20;99.90
40676;DHT22;26359;48.750;9.314;2024-02-14T03:56:07;4.20;99.90
40676;DHT22;26359;48.750;9.314;2024-02-14T03:58:33;4.20;99.90
40676;DHT22;26359;48.750;9.314;2024-02-14T04:01:03;4.10;99.90
40676;DHT22;26359;48.750;9.314;2024-02-14T04:03:28;4.20;99.90
40676;DHT22;26359;48.750;9.314;2024-02-14T04:05:54;4.10;99.90
40676;DHT22;26359;48.750;9.314;2024-02-14T04:08:20;4.20;99.90
40676;DHT22;26359;48.750;9.314;2024-02-14T04:10:45;4.30;99.90
40676;DHT22;26359;48.750;9.314;2024-02-14T04:13:11;4.30;99.90
40676;DHT22;26359;48.750;9.314;2024-02-14T04:15:36;4.40;99.90
40676;DHT22;26359;48.750;9.314;2024-02-14T04:18:02;4.40;99.90
40676;DHT22;26359;48.750;9.314;2024-02-14T04:20:29;4.50;99.90
40676;DHT22;26359;48.750;9.314;2024-02-14T04:22:56;4.50;99.90
40676;DHT22;26359;48.750;9.314;2024-02-14T04:25:22;4.40;99.90
40676;DHT22;26359;48.750;9.314;2024-02-14T04:27:48;4.40;99.90
40676;DHT22;26359;48.750;9.314;2024-02-14T04:30:13;4.50;99.90
40676;DHT22;26359;48.750;9.314;2024-02-14T04:32:39;4.50;99.90
40676;DHT22;26359;48.750;9.314;2024-02-14T04:35:05;4.50;99.90
40676;DHT22;26359;48.750;9.314;2024-02-14T04:37:30;4.50;99.90
40676;DHT22;26359;48.750;9.314;2024-02-14T04:39:56;4.50;99.90
40676;DHT22;26359;48.750;9.314;2024-02-14T04:42:21;4.50;99.90
40676;DHT22;26359;48.750;9.314;2024-02-14T04:44:47;4.60;99.90
40676;DHT22;26359;48.750;9.314;2024-02-14T04:47:13;4.60;99.90
40676;DHT22;26359;48.750;9.314;2024-02-14T04:49:40;4.60;99.90
40676;DHT22;26359;48.750;9.314;2024-02-14T04:52:05;4.60;99.90
40676;DHT22;26359;48.750;9.314;2024-02-14T04:54:32;4.60;99.90
40676;DHT22;26359;48.750;9.314;2024-02-14T04:56:58;4.70;99.90
40676;DHT22;26359;48.750;9.314;2024-02-14T04:59:23;4.70;99.90
40676;DHT22;26359;48.750;9.314;2024-02-14T05:01:49;4.70;99.90
40676;DHT22;26359;48.750;9.314;2024-02-14T05:04:15;4.80;99.90
40676;DHT22;26359;48.750;9.314;2024-02-14T05:06:42;4.80;99.90
40676;DHT22;26359;48.750;9.314;2024-02-14T05:09:08;4.80;99.90
40676;DHT22;26359;48.750;9.314;2024-02-14T05:11:36;4.80;99.90
40676;DHT22;26359;48.750;9.314;2024-02-14T05:14:02;4.80;99.90
40676;DHT22;26359;48.750;9.314;2024-02-14T05:16:27;4.80;99.90
40676;DHT22;26359;48.750;9.314;2024-02-14T05:18:53;4.90;99.90
40676;DHT22;26359;48.750;9.314;2024-02-14T05:21:22;4.90;99.90
40676;DHT22;26359;48.750;9.314;2024-02-14T05:23:47;4.90;99.90
40676;DHT22;26359;48.750;9.314;2024-02-14T05:26:13;4.80;99.90
40676;DHT22;26359;48.750;9.314;2024-02-14T05:28:39;4.80;99.90
40676;DHT22;26359;48.750;9.314;2024-02-14T05:31:05;4.80;99.90
40676;DHT22;26359;48.750;9.314;2024-02-14T05:33:31;4.80;99.90
40676;DHT22;26359;48.750;9.314;2024-02-14T05:35:56;4.80;99.90
40676;DHT22;26359;48.750;9.314;2024-02-14T05:38:22;4.80;99.90
40676;DHT22;26359;48.750;9.314;2024-02-14T05:40:48;4.70;99.90
40676;DHT22;26359;48.750;9.314;2024-02-14T05:43:14;4.60;99.90
40676;DHT22;26359;48.750;9.314;2024-02-14T05:45:40;4.60;99.90
40676;DHT22;26359;48.750;9.314;2024-02-14T05:48:07;4.60;99.90
40676;DHT22;26359;48.750;9.314;2024-02-14T05:50:33;4.60;99.90
40676;DHT22;26359;48.750;9.314;2024-02-14T05:52:59;4.70;99.90
40676;DHT22;26359;48.750;9.314;2024-02-14T05:55:24;4.70;99.90
40676;DHT22;26359;48.750;9.314;2024-02-14T05:57:53;4.70;99.90
40676;DHT22;26359;48.750;9.314;2024-02-14T06:00:19;4.80;99.90
40676;DHT22;26359;48.750;9.314;2024-02-14T06:02:49;4.90;99.90
40676;DHT22;26359;48.750;9.314;2024-02-14T06:05:15;4.90;99.90
40676;DHT22;26359;48.750;9.314;2024-02-14T06:07:41;4.80;99.90
40676;DHT22;26359;48.750;9.314;2024-02-14T06:10:07;4.80;99.90
40676;DHT22;26359;48.750;9.314;2024-02-14T06:12:33;4.90;99.90
40676;DHT22;26359;48.750;9.314;2024-02-14T06:15:00;4.90;99.90
40676;DHT22;26359;48.750;9.314;2024-02-14T06:17:25;4.80;99.90
40676;DHT22;26359;48.750;9.314;2024-02-14T06:19:54;4.80;99.90
40676;DHT22;26359;48.750;9.314;2024-02-14T06:22:20;4.80;99.90
40676;DHT22;26359;48.750;9.314;2024-02-14T06:24:46;4.70;99.90
40676;DHT22;26359;48.750;9.314;2024-02-14T06:27:15;4.70;99.90
40676;DHT22;26359;48.750;9.314;2024-02-14T06:29:43;4.70;99.90
40676;DHT22;26359;48.750;9.314;2024-02-14T06:32:11;4.70;99.90
40676;DHT22;26359;48.750;9.314;2024-02-14T06:34:37;4.80;99.90
40676;DHT22;26359;48.750;9.314;2024-02-14T06:37:02;4.80;99.90
40676;DHT22;26359;48.750;9.314;2024-02-14T06:39:29;4.80;99.90
40676;DHT22;26359;48.750;9.314;2024-02-14T06:41:54;4.90;99.90
40676;DHT22;26359;48.750;9.314;2024-02-14T06:44:20;5.00;99.90
40676;DHT22;26359;48.750;9.314;2024-02-14T06:46:45;4.90;99.90
40676;DHT22;26359;48.750;9.314;2024-02-14T06:49:11;4.90;99.90
40676;DHT22;26359;48.750;9.314;2024-02-14T06:51:36;5.00;99.90
40676;DHT22;26359;48.750;9.314;2024-02-14T06:54:02;5.10;99.90
40676;DHT22;26359;48.750;9.314;2024-02-14T06:56:30;5.20;99.90
40676;DHT22;26359;48.750;9.314;2024-02-14T06:58:56;5.30;99.90
40676;DHT22;26359;48.750;9.314;2024-02-14T07:01:26;5.40;99.90
40676;DHT22;26359;48.750;9.314;2024-02-14T07:03:52;5.40;99.90
40676;DHT22;26359;48.750;9.314;2024-02-14T07:06:18;5.40;99.90
40676;DHT22;26359;48.750;9.314;2024-02-14T07:08:44;5.50;99.90
40676;DHT22;26359;48.750;9.314;2024-02-14T07:11:09;5.50;99.90
40676;DHT22;26359;48.750;9.314;2024-02-14T07:13:35;5.50;99.90
40676;DHT22;26359;48.750;9.314;2024-02-14T07:16:00;5.40;99.90
40676;DHT22;26359;48.750;9.314;2024-02-14T07:18:26;5.50;99.90
40676;DHT22;26359;48.750;9.314;2024-02-14T07:20:52;5.50;99.90
40676;DHT22;26359;48.750;9.314;2024-02-14T07:23:18;5.60;99.90
40676;DHT22;26359;48.750;9.314;2024-02-14T07:38:24;5.60;99.90
40676;DHT22;26359;48.750;9.314;2024-02-14T07:40:49;5.70;99.90
40676;DHT22;26359;48.750;9.314;2024-02-14T07:43:15;5.70;99.90
40676;DHT22;26359;48.750;9.314;2024-02-14T07:45:40;5.70;99.90
40676;DHT22;26359;48.750;9.314;2024-02-14T07:48:06;5.70;99.90
40676;DHT22;26359;48.750;9.314;2024-02-14T07:50:33;5.80;99.90
40676;DHT22;26359;48.750;9.314;2024-02-14T07:52:58;5.70;99.90
40676;DHT22;26359;48.750;9.314;2024-02-14T07:55:24;5.70;99.90
40676;DHT22;26359;48.750;9.314;2024-02-14T07:57:49;5.70;99.90
40676;DHT22;26359;48.750;9.314;2024-02-14T08:00:15;5.70;99.90
40676;DHT22;26359;48.750;9.314;2024-02-14T08:02:48;5.80;99.90
40676;DHT22;26359;48.750;9.314;2024-02-14T08:05:14;5.80;99.90
40676;DHT22;26359;48.750;9.314;2024-02-14T08:07:39;5.90;99.90
40676;DHT22;26359;48.750;9.314;2024-02-14T08:10:05;5.90;99.90
40676;DHT22;26359;48.750;9.314;2024-02-14T08:12:31;5.90;99.90
40676;DHT22;26359;48.750;9.314;2024-02-14T08:14:56;5.90;99.90
40676;DHT22;26359;48.750;9.314;2024-02-14T08:17:22;5.90;99.90
40676;DHT22;26359;48.750;9.314;2024-02-14T08:19:47;5.90;99.90
40676;DHT22;26359;48.750;9.314;2024-02-14T08:22:13;6.00;99.90
40676;DHT22;26359;48.750;9.314;2024-02-14T08:24:39;6.00;99.90
40676;DHT22;26359;48.750;9.314;2024-02-14T08:27:06;6.00;99.90
40676;DHT22;26359;48.750;9.314;2024-02-14T08:29:32;6.00;99.90
40676;DHT22;26359;48.750;9.314;2024-02-14T08:31:57;6.10;99.90
40676;DHT22;26359;48.750;9.314;2024-02-14T08:34:23;6.10;99.90
40676;DHT22;26359;48.750;9.314;2024-02-14T08:36:49;6.20;99.90
40676;DHT22;26359;48.750;9.314;2024-02-14T08:39:14;6.20;99.90
40676;DHT22;26359;48.750;9.314;2024-02-14T08:41:40;6.30;99.90
40676;DHT22;26359;48.750;9.314;2024-02-14T08:44:06;6.40;99.90
40676;DHT22;26359;48.750;9.314;2024-02-14T08:46:32;6.40;99.90
40676;DHT22;26359;48.750;9.314;2024-02-14T08:49:00;6.50;99.90
40676;DHT22;26359;48.750;9.314;2024-02-14T08:51:27;6.50;99.90
40676;DHT22;26359;48.750;9.314;2024-02-14T08:53:53;6.60;99.90
40676;DHT22;26359;48.750;9.314;2024-02-14T08:56:20;6.60;99.90
40676;DHT22;26359;48.750;9.314;2024-02-14T08:58:47;6.60;99.90
40676;DHT22;26359;48.750;9.314;2024-02-14T09:01:13;6.70;99.90
40676;DHT22;26359;48.750;9.314;2024-02-14T09:03:39;6.80;99.90
40676;DHT22;26359;48.750;9.314;2024-02-14T09:06:05;6.90;99.90
40676;DHT22;26359;48.750;9.314;2024-02-14T09:08:30;7.00;99.90
40676;DHT22;26359;48.750;9.314;2024-02-14T09:10:56;7.00;99.90
40676;DHT22;26359;48.750;9.314;2024-02-14T09:13:24;7.10;99.90
40676;DHT22;26359;48.750;9.314;2024-02-14T09:15:50;7.20;99.90
40676;DHT22;26359;48.750;9.314;2024-02-14T09:18:16;7.30;99.90
40676;DHT22;26359;48.750;9.314;2024-02-14T09:20:44;7.30;99.90
40676;DHT22;26359;48.750;9.314;2024-02-14T09:23:12;7.40;99.90
40676;DHT22;26359;48.750;9.314;2024-02-14T09:25:38;7.40;99.90
40676;DHT22;26359;48.750;9.314;2024-02-14T09:28:04;7.40;99.90
40676;DHT22;26359;48.750;9.314;2024-02-14T09:30:31;7.40;99.90
40676;DHT22;26359;48.750;9.314;2024-02-14T09:32:57;7.40;99.90
40676;DHT22;26359;48.750;9.314;2024-02-14T09:35:23;7.50;99.90
40676;DHT22;26359;48.750;9.314;2024-02-14T09:37:50;7.60;99.90
40676;DHT22;26359;48.750;9.314;2024-02-14T09:40:15;7.70;99.90
40676;DHT22;26359;48.750;9.314;2024-02-14T09:42:47;7.80;99.90
40676;DHT22;26359;48.750;9.314;2024-02-14T09:45:16;7.90;99.90
40676;DHT22;26359;48.750;9.314;2024-02-14T09:47:43;7.90;99.90
40676;DHT22;26359;48.750;9.314;2024-02-14T09:50:12;7.90;99.90
40676;DHT22;26359;48.750;9.314;2024-02-14T09:52:38;8.10;99.90
40676;DHT22;26359;48.750;9.314;2024-02-14T09:55:05;8.20;99.90
40676;DHT22;26359;48.750;9.314;2024-02-14T09:57:32;8.40;99.90
40676;DHT22;26359;48.750;9.314;2024-02-14T10:00:00;8.60;99.90
40676;DHT22;26359;48.750;9.314;2024-02-14T10:02:28;8.80;99.90
40676;DHT22;26359;48.750;9.314;2024-02-14T10:04:55;9.10;99.90
40676;DHT22;26359;48.750;9.314;2024-02-14T10:07:20;9.20;99.90
40676;DHT22;26359;48.750;9.314;2024-02-14T10:09:46;9.50;99.90
40676;DHT22;26359;48.750;9.314;2024-02-14T10:12:12;9.70;99.90
40676;DHT22;26359;48.750;9.314;2024-02-14T10:14:38;10.10;99.90
40676;DHT22;26359;48.750;9.314;2024-02-14T10:17:04;10.50;99.90
40676;DHT22;26359;48.750;9.314;2024-02-14T10:19:30;11.00;99.90
40676;DHT22;26359;48.750;9.314;2024-02-14T10:21:57;11.40;99.90
40676;DHT22;26359;48.750;9.314;2024-02-14T10:24:29;11.80;99.90
40676;DHT22;26359;48.750;9.314;2024-02-14T10:26:58;12.10;99.90
40676;DHT22;26359;48.750;9.314;2024-02-14T10:29:24;12.60;99.90
40676;DHT22;26359;48.750;9.314;2024-02-14T10:31:50;12.80;99.90
40676;DHT22;26359;48.750;9.314;2024-02-14T10:34:16;13.00;99.90
40676;DHT22;26359;48.750;9.314;2024-02-14T10:36:45;12.60;99.90
40676;DHT22;26359;48.750;9.314;2024-02-14T10:39:11;12.90;99.90
40676;DHT22;26359;48.750;9.314;2024-02-14T10:41:37;13.00;99.90
40676;DHT22;26359;48.750;9.314;2024-02-14T10:44:03;13.40;99.90
40676;DHT22;26359;48.750;9.314;2024-02-14T10:46:32;13.50;99.90
40676;DHT22;26359;48.750;9.314;2024-02-14T10:49:05;13.30;99.90
40676;DHT22;26359;48.750;9.314;2024-02-14T10:51:34;13.60;99.90
40676;DHT22;26359;48.750;9.314;2024-02-14T10:54:13;13.70;99.90
40676;DHT22;26359;48.750;9.314;2024-02-14T10:56:42;14.00;99.90
40676;DHT22;26359;48.750;9.314;2024-02-14T10:59:11;14.10;99.90
40676;DHT22;26359;48.750;9.314;2024-02-14T11:01:39;14.20;99.90
40676;DHT22;26359;48.750;9.314;2024-02-14T11:04:05;14.10;99.90
40676;DHT22;26359;48.750;9.314;2024-02-14T11:06:30;14.10;99.90
40676;DHT22;26359;48.750;9.314;2024-02-14T11:09:01;14.00;99.90
40676;DHT22;26359;48.750;9.314;2024-02-14T11:11:30;14.00;99.90
40676;DHT22;26359;48.750;9.314;2024-02-14T11:13:58;13.80;99.90
40676;DHT22;26359;48.750;9.314;2024-02-14T11:16:27;13.60;99.90
40676;DHT22;26359;48.750;9.314;2024-02-14T11:19:07;13.70;99.90
40676;DHT22;26359;48.750;9.314;2024-02-14T11:21:36;13.50;99.90
40676;DHT22;26359;48.750;9.314;2024-02-14T11:24:06;13.40;99.90
40676;DHT22;26359;48.750;9.314;2024-02-14T11:26:39;13.30;99.90
40676;DHT22;26359;48.750;9.314;2024-02-14T11:29:04;13.10;99.90
40676;DHT22;26359;48.750;9.314;2024-02-14T11:31:36;13.00;99.90
40676;DHT22;26359;48.750;9.314;2024-02-14T11:34:04;12.90;99.90
40676;DHT22;26359;48.750;9.314;2024-02-14T11:36:31;12.60;99.90
40676;DHT22;26359;48.750;9.314;2024-02-14T11:38:57;12.40;99.90
40676;DHT22;26359;48.750;9.314;2024-02-14T11:41:22;12.30;99.90
40676;DHT22;26359;48.750;9.314;2024-02-14T11:43:52;12.20;99.90
40676;DHT22;26359;48.750;9.314;2024-02-14T11:46:17;12.20;99.90
40676;DHT22;26359;48.750;9.314;2024-02-14T11:48:43;12.10;99.90
40676;DHT22;26359;48.750;9.314;2024-02-14T11:51:11;12.10;99.90
40676;DHT22;26359;48.750;9.314;2024-02-14T11:53:37;12.10;99.90
40676;DHT22;26359;48.750;9.314;2024-02-14T11:56:05;12.00;99.90
40676;DHT22;26359;48.750;9.314;2024-02-14T11:58:30;12.00;99.90
40676;DHT22;26359;48.750;9.314;2024-02-14T12:00:57;12.00;99.90
40676;DHT22;26359;48.750;9.314;2024-02-14T12:03:23;12.00;99.90
40676;DHT22;26359;48.750;9.314;2024-02-14T12:05:52;12.00;99.90
40676;DHT22;26359;48.750;9.314;2024-02-14T12:08:19;12.00;99.90
40676;DHT22;26359;48.750;9.314;2024-02-14T12:10:45;12.00;99.90
40676;DHT22;26359;48.750;9.314;2024-02-14T12:13:20;12.00;99.90
40676;DHT22;26359;48.750;9.314;2024-02-14T12:15:47;12.10;99.90
40676;DHT22;26359;48.750;9.314;2024-02-14T12:18:13;12.20;99.90
40676;DHT22;26359;48.750;9.314;2024-02-14T12:20:42;12.30;99.90
40676;DHT22;26359;48.750;9.314;2024-02-14T12:23:15;12.30;99.90
40676;DHT22;26359;48.750;9.314;2024-02-14T12:25:43;12.30;99.90
40676;DHT22;26359;48.750;9.314;2024-02-14T12:28:08;12.40;99.90
40676;DHT22;26359;48.750;9.314;2024-02-14T12:30:45;12.40;99.90
40676;DHT22;26359;48.750;9.314;2024-02-14T12:33:12;12.50;99.90
40676;DHT22;26359;48.750;9.314;2024-02-14T12:35:44;12.50;99.90
40676;DHT22;26359;48.750;9.314;2024-02-14T12:38:10;12.60;99.90
40676;DHT22;26359;48.750;9.314;2024-02-14T12:40:36;12.70;99.90
40676;DHT22;26359;48.750;9.314;2024-02-14T12:43:02;12.70;99.90
40676;DHT22;26359;48.750;9.314;2024-02-14T12:45:27;12.70;99.90
40676;DHT22;26359;48.750;9.314;2024-02-14T12:47:53;12.70;99.90
40676;DHT22;26359;48.750;9.314;2024-02-14T12:50:18;12.70;99.90
40676;DHT22;26359;48.750;9.314;2024-02-14T12:52:46;12.80;99.90
40676;DHT22;26359;48.750;9.314;2024-02-14T12:55:12;12.80;99.90
40676;DHT22;26359;48.750;9.314;2024-02-14T12:57:38;12.80;99.90
40676;DHT22;26359;48.750;9.314;2024-02-14T13:00:04;12.80;99.90
40676;DHT22;26359;48.750;9.314;2024-02-14T13:02:34;12.90;99.90
40676;DHT22;26359;48.750;9.314;2024-02-14T13:05:00;12.90;99.90
40676;DHT22;26359;48.750;9.314;2024-02-14T13:07:27;12.90;99.90
40676;DHT22;26359;48.750;9.314;2024-02-14T13:09:53;12.90;99.90
40676;DHT22;26359;48.750;9.314;2024-02-14T13:12:20;12.90;99.90
40676;DHT22;26359;48.750;9.314;2024-02-14T13:14:46;12.90;99.90
40676;DHT22;26359;48.750;9.314;2024-02-14T13:17:12;12.90;99.90
40676;DHT22;26359;48.750;9.314;2024-02-14T13:19:37;12.90;99.90
40676;DHT22;26359;48.750;9.314;2024-02-14T13:22:04;13.00;99.90
40676;DHT22;26359;48.750;9.314;2024-02-14T13:24:30;13.00;99.90
40676;DHT22;26359;48.750;9.314;2024-02-14T13:26:55;13.00;99.90
40676;DHT22;26359;48.750;9.314;2024-02-14T13:29:23;13.00;99.90
40676;DHT22;26359;48.750;9.314;2024-02-14T13:31:50;13.00;99.90
40676;DHT22;26359;48.750;9.314;2024-02-14T13:34:16;13.10;99.90
40676;DHT22;26359;48.750;9.314;2024-02-14T13:36:44;13.10;99.90
40676;DHT22;26359;48.750;9.314;2024-02-14T13:39:09;13.20;99.90
40676;DHT22;26359;48.750;9.314;2024-02-14T13:41:35;13.20;99.90
40676;DHT22;26359;48.750;9.314;2024-02-14T13:44:03;13.40;99.90
40676;DHT22;26359;48.750;9.314;2024-02-14T13:46:29;13.40;99.90
40676;DHT22;26359;48.750;9.314;2024-02-14T13:48:54;13.40;99.90
40676;DHT22;26359;48.750;9.314;2024-02-14T13:51:20;13.50;99.90
40676;DHT22;26359;48.750;9.314;2024-02-14T13:53:46;13.50;99.90
40676;DHT22;26359;48.750;9.314;2024-02-14T13:56:11;13.50;99.90
40676;DHT22;26359;48.750;9.314;2024-02-14T13:58:37;13.60;99.90
40676;DHT22;26359;48.750;9.314;2024-02-14T14:01:04;13.60;99.90
40676;DHT22;26359;48.750;9.314;2024-02-14T14:03:29;13.60;99.90
40676;DHT22;26359;48.750;9.314;2024-02-14T14:05:55;13.60;99.90
40676;DHT22;26359;48.750;9.314;2024-02-14T14:08:22;13.60;99.90
40676;DHT22;26359;48.750;9.314;2024-02-14T14:10:48;13.70;99.90
40676;DHT22;26359;48.750;9.314;2024-02-14T14:13:13;13.60;99.90
40676;DHT22;26359;48.750;9.314;2024-02-14T14:15:39;13.60;99.90
40676;DHT22;26359;48.750;9.314;2024-02-14T14:18:06;13.70;99.90
40676;DHT22;26359;48.750;9.314;2024-02-14T14:20:34;13.70;99.90
40676;DHT22;26359;48.750;9.314;2024-02-14T14:22:59;13.70;99.90
40676;DHT22;26359;48.750;9.314;2024-02-14T14:25:25;13.60;99.90
40676;DHT22;26359;48.750;9.314;2024-02-14T14:27:53;13.70;99.90
40676;DHT22;26359;48.750;9.314;2024-02-14T14:30:18;13.60;99.90
40676;DHT22;26359;48.750;9.314;2024-02-14T14:32:44;13.60;99.90
40676;DHT22;26359;48.750;9.314;2024-02-14T14:35:09;13.60;99.90
40676;DHT22;26359;48.750;9.314;2024-02-14T14:37:38;13.60;99.90
40676;DHT22;26359;48.750;9.314;2024-02-14T14:40:04;13.60;99.90
40676;DHT22;26359;48.750;9.314;2024-02-14T14:42:30;13.60;99.90
40676;DHT22;26359;48.750;9.314;2024-02-14T14:44:56;13.60;99.90
40676;DHT22;26359;48.750;9.314;2024-02-14T14:47:23;13.60;99.90
40676;DHT22;26359;48.750;9.314;2024-02-14T14:49:48;13.60;99.90
40676;DHT22;26359;48.750;9.314;2024-02-14T14:52:13;13.70;99.90
40676;DHT22;26359;48.750;9.314;2024-02-14T14:54:40;13.70;99.90
40676;DHT22;26359;48.750;9.314;2024-02-14T14:57:05;13.60;99.90
40676;DHT22;26359;48.750;9.314;2024-02-14T14:59:36;13.70;99.90
40676;DHT22;26359;48.750;9.314;2024-02-14T15:02:02;13.60;99.90
40676;DHT22;26359;48.750;9.314;2024-02-14T15:04:28;13.50;99.90
40676;DHT22;26359;48.750;9.314;2024-02-14T15:06:53;13.50;99.90
40676;DHT22;26359;48.750;9.314;2024-02-14T15:09:20;13.40;99.90
40676;DHT22;26359;48.750;9.314;2024-02-14T15:11:46;13.40;99.90
40676;DHT22;26359;48.750;9.314;2024-02-14T15:14:12;13.40;99.90
40676;DHT22;26359;48.750;9.314;2024-02-14T15:16:37;13.40;99.90
40676;DHT22;26359;48.750;9.314;2024-02-14T15:19:03;13.30;99.90
40676;DHT22;26359;48.750;9.314;2024-02-14T15:21:28;13.30;99.90
40676;DHT22;26359;48.750;9.314;2024-02-14T15:23:54;13.30;99.90
40676;DHT22;26359;48.750;9.314;2024-02-14T15:26:19;13.20;99.90
40676;DHT22;26359;48.750;9.314;2024-02-14T15:28:49;13.20;99.90
40676;DHT22;26359;48.750;9.314;2024-02-14T15:31:24;13.20;99.90
40676;DHT22;26359;48.750;9.314;2024-02-14T15:34:08;13.20;99.90
40676;DHT22;26359;48.750;9.314;2024-02-14T15:36:33;13.20;99.90
40676;DHT22;26359;48.750;9.314;2024-02-14T15:38:59;13.30;99.90
40676;DHT22;26359;48.750;9.314;2024-02-14T15:41:25;13.30;99.90
40676;DHT22;26359;48.750;9.314;2024-02-14T15:43:51;13.30;99.90
40676;DHT22;26359;48.750;9.314;2024-02-14T15:46:16;13.20;99.90
40676;DHT22;26359;48.750;9.314;2024-02-14T15:48:43;13.20;99.90